createdAt,value
2019-01-11T00:00:14.727Z,6.10
2019-01-11T00:01:14.719Z,8.90
2019-01-11T00:02:14.706Z,7.10
2019-01-11T00:03:14.698Z,6.20
2019-01-11T00:04:14.721Z,7.60
2019-01-11T00:05:14.682Z,7.70
2019-01-11T00:06:14.673Z,7.20
2019-01-11T00:07:14.666Z,7.10
2019-01-11T00:08:14.686Z,7.80
2019-01-11T00:09:14.673Z,7.80
2019-01-11T00:10:14.641Z,6.50
2019-01-11T00:11:14.629Z,7.70
2019-01-11T00:12:14.620Z,7.30
2019-01-11T00:13:14.613Z,7.10
2019-01-11T00:14:14.629Z,7.00
2019-01-11T00:15:14.594Z,6.90
2019-01-11T00:16:14.586Z,7.80
2019-01-11T00:17:14.578Z,6.20
2019-01-11T00:18:14.568Z,8.50
2019-01-11T00:19:14.591Z,9.00
2019-01-11T00:20:14.553Z,8.70
2019-01-11T00:21:14.541Z,7.30
2019-01-11T00:22:14.534Z,9.50
2019-01-11T00:23:14.524Z,7.80
2019-01-11T00:24:14.549Z,8.60
2019-01-11T00:25:14.501Z,7.90
2019-01-11T00:26:14.497Z,7.30
2019-01-11T00:27:14.493Z,7.50
2019-01-11T00:28:14.480Z,8.20
2019-01-11T00:29:14.498Z,8.10
2019-01-11T00:30:14.468Z,9.20
2019-01-11T00:31:14.456Z,10.10
2019-01-11T00:32:14.447Z,8.30
2019-01-11T00:33:14.435Z,8.10
2019-01-11T00:34:14.458Z,7.80
2019-01-11T00:35:14.429Z,7.00
2019-01-11T00:36:14.410Z,7.70
2019-01-11T00:37:14.400Z,9.60
2019-01-11T00:38:14.392Z,6.70
2019-01-11T00:39:14.413Z,7.60
2019-01-11T00:40:14.377Z,8.00
2019-01-11T00:41:14.372Z,6.60
2019-01-11T00:42:14.359Z,7.40
2019-01-11T00:43:15.172Z,7.00
2019-01-11T00:44:14.368Z,7.20
2019-01-11T00:45:14.330Z,6.80
2019-01-11T00:46:14.319Z,6.70
2019-01-11T00:47:14.314Z,7.50
2019-01-11T00:48:14.306Z,7.60
2019-01-11T00:49:14.322Z,7.30
2019-01-11T00:50:14.289Z,8.50
2019-01-11T00:51:14.283Z,6.30
2019-01-11T00:52:14.271Z,8.30
2019-01-11T00:53:14.270Z,6.70
2019-01-11T00:54:14.277Z,7.50
2019-01-11T00:55:14.250Z,7.40
2019-01-11T00:56:14.237Z,6.50
2019-01-11T00:57:14.225Z,8.10
2019-01-11T00:58:14.215Z,6.70
2019-01-11T00:59:14.230Z,6.80
2019-01-11T01:00:14.199Z,6.30
2019-01-11T01:01:14.189Z,6.70
2019-01-11T01:02:14.184Z,6.20
2019-01-11T01:03:14.174Z,6.20
2019-01-11T01:04:14.191Z,8.60
2019-01-11T01:05:14.158Z,7.90
2019-01-11T01:06:14.148Z,5.60
2019-01-11T01:07:14.137Z,7.00
2019-01-11T01:08:14.128Z,7.60
2019-01-11T01:09:14.144Z,5.50
2019-01-11T01:10:14.141Z,6.10
2019-01-11T01:11:14.102Z,7.90
2019-01-11T01:12:14.092Z,7.20
2019-01-11T01:13:14.083Z,7.40
2019-01-11T01:14:14.075Z,7.10
2019-01-11T01:15:14.096Z,6.80
2019-01-11T01:16:14.060Z,8.30
2019-01-11T01:17:14.048Z,6.60
2019-01-11T01:18:14.042Z,8.50
2019-01-11T01:19:19.891Z,6.30
2019-01-11T01:20:14.055Z,6.30
2019-01-11T01:21:14.012Z,6.30
2019-01-11T01:22:14.003Z,6.20
2019-01-11T01:23:13.997Z,5.70
2019-01-11T01:24:13.988Z,5.60
2019-01-11T01:25:13.979Z,5.60
2019-01-11T01:26:13.998Z,6.70
2019-01-11T01:27:13.963Z,6.70
2019-01-11T01:28:13.955Z,5.70
2019-01-11T01:29:13.943Z,6.00
2019-01-11T01:30:13.939Z,5.00
2019-01-11T01:31:13.959Z,5.40
2019-01-11T01:32:13.920Z,5.70
2019-01-11T01:33:13.910Z,5.10
2019-01-11T01:34:13.912Z,6.40
2019-01-11T01:35:13.894Z,5.00
2019-01-11T01:36:13.911Z,7.10
2019-01-11T01:37:13.874Z,5.10
2019-01-11T01:38:13.868Z,6.30
2019-01-11T01:39:13.860Z,5.30
2019-01-11T01:40:13.851Z,5.30
2019-01-11T01:41:13.881Z,4.10
2019-01-11T01:42:13.830Z,5.90
2019-01-11T01:43:13.830Z,4.90
2019-01-11T01:44:13.815Z,5.80
2019-01-11T01:45:13.804Z,5.80
2019-01-11T01:46:13.829Z,5.60
2019-01-11T01:47:13.790Z,5.70
2019-01-11T01:48:13.771Z,4.90
2019-01-11T01:49:13.770Z,4.40
2019-01-11T01:50:13.760Z,5.60
2019-01-11T01:51:13.786Z,5.50
2019-01-11T01:52:13.745Z,6.00
2019-01-11T01:53:13.732Z,6.20
2019-01-11T01:54:13.759Z,5.50
2019-01-11T01:55:13.745Z,5.20
2019-01-11T01:56:13.710Z,4.80
2019-01-11T01:57:13.702Z,5.10
2019-01-11T01:58:13.693Z,5.10
2019-01-11T01:59:13.690Z,5.50
2019-01-11T02:00:13.711Z,5.00
2019-01-11T02:01:13.673Z,5.50
2019-01-11T02:02:13.657Z,5.40
2019-01-11T02:03:13.648Z,5.80
2019-01-11T02:04:13.642Z,5.30
2019-01-11T02:05:13.660Z,6.90
2019-01-11T02:06:13.627Z,4.20
2019-01-11T02:07:13.613Z,4.90
2019-01-11T02:08:13.619Z,6.90
2019-01-11T02:09:13.595Z,6.60
2019-01-11T02:10:13.614Z,7.20
2019-01-11T02:11:13.580Z,7.10
2019-01-11T02:12:13.573Z,5.70
2019-01-11T02:13:13.560Z,7.20
2019-01-11T02:14:13.555Z,6.90
2019-01-11T02:15:13.574Z,5.00
2019-01-11T02:16:13.534Z,5.80
2019-01-11T02:17:13.524Z,6.00
2019-01-11T02:18:13.520Z,6.60
2019-01-11T02:19:13.510Z,6.00
2019-01-11T02:20:13.528Z,5.70
2019-01-11T02:21:13.492Z,5.30
2019-01-11T02:22:13.483Z,5.40
2019-01-11T02:23:13.474Z,5.20
2019-01-11T02:24:13.466Z,5.90
2019-01-11T02:25:13.487Z,6.60
2019-01-11T02:26:13.449Z,6.50
2019-01-11T02:27:13.459Z,5.80
2019-01-11T02:28:13.477Z,6.00
2019-01-11T02:29:13.427Z,6.00
2019-01-11T02:30:13.438Z,5.90
2019-01-11T02:31:13.406Z,7.60
2019-01-11T02:32:13.403Z,5.10
2019-01-11T02:33:13.392Z,5.90
2019-01-11T02:34:13.377Z,6.40
2019-01-11T02:35:13.399Z,6.80
2019-01-11T02:36:13.361Z,5.30
2019-01-11T02:37:13.357Z,6.00
2019-01-11T02:38:13.345Z,5.80
2019-01-11T02:39:13.339Z,6.40
2019-01-11T02:40:13.357Z,7.00
2019-01-11T02:41:13.318Z,7.60
2019-01-11T02:42:13.308Z,4.60
2019-01-11T02:43:13.300Z,6.40
2019-01-11T02:44:13.294Z,6.40
2019-01-11T02:45:13.312Z,5.40
2019-01-11T02:46:13.274Z,6.20
2019-01-11T02:47:13.267Z,6.70
2019-01-11T02:48:13.256Z,5.20
2019-01-11T02:49:13.253Z,5.20
2019-01-11T02:50:13.268Z,7.20
2019-01-11T02:51:13.232Z,5.50
2019-01-11T02:52:13.219Z,6.60
2019-01-11T02:53:13.212Z,6.00
2019-01-11T02:54:13.206Z,6.80
2019-01-11T02:55:13.225Z,6.10
2019-01-11T02:56:13.188Z,9.10
2019-01-11T02:57:13.192Z,8.40
2019-01-11T02:58:13.168Z,9.30
2019-01-11T02:59:13.165Z,8.10
2019-01-11T03:00:13.178Z,9.10
2019-01-11T03:01:13.144Z,8.50
2019-01-11T03:02:13.136Z,8.80
2019-01-11T03:03:13.127Z,10.40
2019-01-11T03:04:13.122Z,10.60
2019-01-11T03:05:13.151Z,8.70
2019-01-11T03:06:13.134Z,9.30
2019-01-11T03:07:13.093Z,9.50
2019-01-11T03:08:13.082Z,9.80
2019-01-11T03:09:13.076Z,11.10
2019-01-11T03:10:13.067Z,9.60
2019-01-11T03:11:13.088Z,9.80
2019-01-11T03:12:13.063Z,10.00
2019-01-11T03:13:13.039Z,9.60
2019-01-11T03:14:13.036Z,9.80
2019-01-11T03:15:13.021Z,10.20
2019-01-11T03:16:13.053Z,10.20
2019-01-11T03:17:13.007Z,10.50
2019-01-11T03:18:13.011Z,10.00
2019-01-11T03:19:12.996Z,9.00
2019-01-11T03:20:12.999Z,9.00
2019-01-11T03:21:13.012Z,8.40
2019-01-11T03:22:12.961Z,9.70
2019-01-11T03:23:12.953Z,9.60
2019-01-11T03:24:12.944Z,9.00
2019-01-11T03:25:12.937Z,9.10
2019-01-11T03:26:12.958Z,8.70
2019-01-11T03:27:12.922Z,9.20
2019-01-11T03:28:12.912Z,8.50
2019-01-11T03:29:12.901Z,10.20
2019-01-11T03:30:12.898Z,8.30
2019-01-11T03:31:12.913Z,9.80
2019-01-11T03:32:12.892Z,12.20
2019-01-11T03:33:12.876Z,9.80
2019-01-11T03:34:12.862Z,10.80
2019-01-11T03:35:12.853Z,9.20
2019-01-11T03:36:12.872Z,7.20
2019-01-11T03:37:12.831Z,7.10
2019-01-11T03:38:12.827Z,9.10
2019-01-11T03:39:12.815Z,9.40
2019-01-11T03:40:12.808Z,8.50
2019-01-11T03:41:12.827Z,8.70
2019-01-11T03:42:12.832Z,7.80
2019-01-11T03:43:12.786Z,9.60
2019-01-11T03:44:12.776Z,9.30
2019-01-11T03:45:12.764Z,8.80
2019-01-11T03:46:12.788Z,7.90
2019-01-11T03:47:12.749Z,8.70
2019-01-11T03:48:12.738Z,8.90
2019-01-11T03:49:12.733Z,8.50
2019-01-11T03:50:12.727Z,8.70
2019-01-11T03:51:12.743Z,9.20
2019-01-11T03:52:12.707Z,8.50
2019-01-11T03:53:12.693Z,7.60
2019-01-11T03:54:12.686Z,6.90
2019-01-11T03:55:12.677Z,7.70
2019-01-11T03:56:12.699Z,8.00
2019-01-11T03:57:12.667Z,7.90
2019-01-11T03:58:12.655Z,7.40
2019-01-11T03:59:12.644Z,7.60
2019-01-11T04:00:12.639Z,9.10
2019-01-11T04:01:12.654Z,8.00
2019-01-11T04:02:12.620Z,7.50
2019-01-11T04:04:44.434Z,7.70
2019-01-11T04:05:44.390Z,11.40
2019-01-11T04:06:44.406Z,7.20
2019-01-11T04:07:44.369Z,7.90
2019-01-11T04:08:44.361Z,9.90
2019-01-11T04:09:44.359Z,8.60
2019-01-11T04:10:44.348Z,10.00
2019-01-11T04:11:44.364Z,10.10
2019-01-11T04:12:44.356Z,9.40
2019-01-11T04:13:44.317Z,8.50
2019-01-11T04:14:44.312Z,9.00
2019-01-11T04:15:44.301Z,11.10
2019-01-11T04:16:44.293Z,10.30
2019-01-11T04:17:44.310Z,10.70
2019-01-11T04:18:44.279Z,10.20
2019-01-11T04:19:44.274Z,13.70
2019-01-11T04:20:44.263Z,9.90
2019-01-11T04:21:44.282Z,11.60
2019-01-11T04:22:44.251Z,11.30
2019-01-11T04:23:44.266Z,10.00
2019-01-11T04:24:46.031Z,13.60
2019-01-11T04:25:44.228Z,9.30
2019-01-11T04:26:44.209Z,10.60
2019-01-11T04:27:44.234Z,10.30
2019-01-11T04:28:44.191Z,8.80
2019-01-11T04:29:44.184Z,8.60
2019-01-11T04:30:44.996Z,11.90
2019-01-11T04:31:44.793Z,12.10
2019-01-11T04:32:44.182Z,9.70
2019-01-11T04:33:44.153Z,10.90
2019-01-11T04:34:44.145Z,10.60
2019-01-11T04:35:44.140Z,13.00
2019-01-11T04:36:44.125Z,11.60
2019-01-11T04:37:44.143Z,10.30
2019-01-11T04:38:44.107Z,10.00
2019-01-11T04:39:44.109Z,12.30
2019-01-11T04:40:44.094Z,10.20
2019-01-11T04:41:44.080Z,10.30
2019-01-11T04:42:44.137Z,11.90
2019-01-11T04:43:44.064Z,11.10
2019-01-11T04:44:44.054Z,10.10
2019-01-11T04:45:44.048Z,12.10
2019-01-11T04:46:44.068Z,10.10
2019-01-11T04:47:44.031Z,15.20
2019-01-11T04:48:44.046Z,10.40
2019-01-11T04:49:44.009Z,10.10
2019-01-11T04:50:44.002Z,8.30
2019-01-11T04:51:43.994Z,11.90
2019-01-11T04:52:43.990Z,9.00
2019-01-11T04:53:44.007Z,11.50
2019-01-11T04:54:43.970Z,11.70
2019-01-11T04:55:43.963Z,13.60
2019-01-11T04:56:43.955Z,10.30
2019-01-11T04:57:43.971Z,10.50
2019-01-11T04:58:43.934Z,12.60
2019-01-11T04:59:43.929Z,8.80
2019-01-11T05:00:43.916Z,12.00
2019-01-11T05:01:43.910Z,9.90
2019-01-11T05:02:43.935Z,7.40
2019-01-11T05:03:43.893Z,7.00
2019-01-11T05:04:43.884Z,12.20
2019-01-11T05:05:43.874Z,9.50
2019-01-11T05:06:43.866Z,11.10
2019-01-11T05:07:43.890Z,10.00
2019-01-11T05:08:43.849Z,14.30
2019-01-11T05:09:43.850Z,9.90
2019-01-11T05:10:43.833Z,9.70
2019-01-11T05:11:43.830Z,11.70
2019-01-11T05:12:43.845Z,12.50
2019-01-11T05:13:43.807Z,13.80
2019-01-11T05:14:43.795Z,13.10
2019-01-11T05:15:43.785Z,13.90
2019-01-11T05:16:43.781Z,12.00
2019-01-11T05:17:43.808Z,13.30
2019-01-11T05:18:43.762Z,13.50
2019-01-11T05:19:43.755Z,11.30
2019-01-11T05:20:43.743Z,9.70
2019-01-11T05:21:43.744Z,9.00
2019-01-11T05:22:43.751Z,10.40
2019-01-11T05:23:43.717Z,11.40
2019-01-11T05:24:43.714Z,12.80
2019-01-11T05:25:43.702Z,11.20
2019-01-11T05:26:43.697Z,9.60
2019-01-11T05:27:43.714Z,10.00
2019-01-11T05:28:43.682Z,11.50
2019-01-11T05:29:43.666Z,12.20
2019-01-11T05:30:43.661Z,12.00
2019-01-11T05:31:43.647Z,13.20
2019-01-11T05:32:43.671Z,13.50
2019-01-11T05:33:43.636Z,9.20
2019-01-11T05:34:43.625Z,10.60
2019-01-11T05:35:43.617Z,13.30
2019-01-11T05:36:43.608Z,8.50
2019-01-11T05:37:43.626Z,8.60
2019-01-11T05:38:43.622Z,11.40
2019-01-11T05:39:43.583Z,10.00
2019-01-11T05:40:43.575Z,9.80
2019-01-11T05:41:43.569Z,10.10
2019-01-11T05:42:43.560Z,10.20
2019-01-11T05:43:43.581Z,11.40
2019-01-11T05:44:43.626Z,13.50
2019-01-11T05:45:43.530Z,9.20
2019-01-11T05:46:43.527Z,5.90
2019-01-11T05:47:43.519Z,12.20
2019-01-11T05:48:43.545Z,4.70
2019-01-11T05:49:43.499Z,12.90
2019-01-11T05:50:43.487Z,12.00
2019-01-11T05:51:43.484Z,9.50
2019-01-11T05:52:43.476Z,13.10
2019-01-11T05:53:43.489Z,7.50
2019-01-11T05:54:43.459Z,9.40
2019-01-11T05:55:43.448Z,9.50
2019-01-11T05:56:43.439Z,9.60
2019-01-11T05:57:43.439Z,11.60
2019-01-11T05:58:43.452Z,6.50
2019-01-11T05:59:43.413Z,12.40
2019-01-11T06:00:43.404Z,8.80
2019-01-11T06:01:43.394Z,6.60
2019-01-11T06:02:43.383Z,5.60
2019-01-11T06:03:43.408Z,8.80
2019-01-11T06:04:43.367Z,6.40
2019-01-11T06:05:43.360Z,9.10
2019-01-11T06:06:43.354Z,10.60
2019-01-11T06:07:43.343Z,5.60
2019-01-11T06:08:43.363Z,8.60
2019-01-11T06:09:43.373Z,7.80
2019-01-11T06:10:43.324Z,10.00
2019-01-11T06:11:43.314Z,10.10
2019-01-11T06:12:43.304Z,7.00
2019-01-11T06:13:43.324Z,10.60
2019-01-11T06:14:43.281Z,7.70
2019-01-11T06:15:43.276Z,5.00
2019-01-11T06:16:43.266Z,8.60
2019-01-11T06:17:43.298Z,6.70
2019-01-11T06:18:43.254Z,8.90
2019-01-11T06:19:43.271Z,6.30
2019-01-11T06:20:43.234Z,6.50
2019-01-11T06:21:44.010Z,10.70
2019-01-11T06:22:43.217Z,10.20
2019-01-11T06:23:43.210Z,10.30
2019-01-11T06:24:43.225Z,9.00
2019-01-11T06:25:43.198Z,11.10
2019-01-11T06:26:43.181Z,6.30
2019-01-11T06:27:43.172Z,9.30
2019-01-11T06:28:43.194Z,11.10
2019-01-11T06:29:43.160Z,10.20
2019-01-11T06:30:43.150Z,5.70
2019-01-11T06:31:43.142Z,9.50
2019-01-11T06:32:43.135Z,7.20
2019-01-11T06:33:43.163Z,9.20
2019-01-11T06:34:43.117Z,10.60
2019-01-11T06:35:43.108Z,12.50
2019-01-11T06:36:43.099Z,9.50
2019-01-11T06:37:43.094Z,7.60
2019-01-11T06:38:43.108Z,9.60
2019-01-11T06:39:43.072Z,7.00
2019-01-11T06:40:43.063Z,7.80
2019-01-11T06:41:43.058Z,8.70
2019-01-11T06:42:43.049Z,8.10
2019-01-11T06:43:43.065Z,11.70
2019-01-11T06:44:43.035Z,11.50
2019-01-11T06:45:43.021Z,10.20
2019-01-11T06:46:43.012Z,10.90
2019-01-11T06:47:43.002Z,11.60
2019-01-11T06:48:43.024Z,10.40
2019-01-11T06:49:42.987Z,6.80
2019-01-11T06:50:42.980Z,13.20
2019-01-11T06:51:42.975Z,11.20
2019-01-11T06:52:42.960Z,5.90
2019-01-11T06:53:42.985Z,15.00
2019-01-11T06:54:42.937Z,16.40
2019-01-11T06:55:42.943Z,17.60
2019-01-11T06:56:42.930Z,12.50
2019-01-11T06:57:42.918Z,13.10
2019-01-11T06:58:42.943Z,16.60
2019-01-11T06:59:42.903Z,10.00
2019-01-11T07:00:42.896Z,10.50
2019-01-11T07:01:42.886Z,15.50
2019-01-11T07:02:42.877Z,11.40
2019-01-11T07:03:42.898Z,12.40
2019-01-11T07:04:42.858Z,9.90
2019-01-11T07:05:42.849Z,11.30
2019-01-11T07:06:42.840Z,12.10
2019-01-11T07:07:42.835Z,11.30
2019-01-11T07:08:42.854Z,10.70
2019-01-11T07:09:42.823Z,10.50
2019-01-11T07:10:42.809Z,11.60
2019-01-11T07:11:42.802Z,13.90
2019-01-11T07:12:42.791Z,14.30
2019-01-11T07:13:42.810Z,10.50
2019-01-11T07:14:42.804Z,9.70
2019-01-11T07:15:42.770Z,6.60
2019-01-11T07:16:42.757Z,8.90
2019-01-11T07:17:42.751Z,8.80
2019-01-11T07:18:42.741Z,8.60
2019-01-11T07:19:42.762Z,10.80
2019-01-11T07:20:43.211Z,13.10
2019-01-11T07:21:42.716Z,9.20
2019-01-11T07:22:42.708Z,8.40
2019-01-11T07:23:42.700Z,10.30
2019-01-11T07:24:42.843Z,12.30
2019-01-11T07:25:42.680Z,13.30
2019-01-11T07:26:42.678Z,7.00
2019-01-11T07:27:42.667Z,10.70
2019-01-11T07:28:42.655Z,10.70
2019-01-11T07:29:42.687Z,13.40
2019-01-11T07:30:42.640Z,8.40
2019-01-11T07:31:42.630Z,8.50
2019-01-11T07:32:42.624Z,9.00
2019-01-11T07:33:42.616Z,10.70
2019-01-11T07:34:42.635Z,9.60
2019-01-11T07:35:42.599Z,10.80
2019-01-11T07:36:42.590Z,9.70
2019-01-11T07:37:42.579Z,9.80
2019-01-11T07:38:42.608Z,8.90
2019-01-11T07:39:42.563Z,9.70
2019-01-11T07:40:42.583Z,8.90
2019-01-11T07:41:42.548Z,9.50
2019-01-11T07:42:42.538Z,10.20
2019-01-11T07:43:42.534Z,11.70
2019-01-11T07:44:42.521Z,9.70
2019-01-11T07:45:42.543Z,7.60
2019-01-11T07:46:42.505Z,10.40
2019-01-11T07:47:42.499Z,9.70
2019-01-11T07:48:42.488Z,6.50
2019-01-11T07:49:42.482Z,10.90
2019-01-11T07:50:42.500Z,10.70
2019-01-11T07:51:42.462Z,10.20
2019-01-11T07:52:42.454Z,9.10
2019-01-11T07:53:42.447Z,11.80
2019-01-11T07:54:42.440Z,9.00
2019-01-11T07:55:42.462Z,9.20
2019-01-11T07:56:42.421Z,10.70
2019-01-11T07:57:42.413Z,7.50
2019-01-11T07:58:42.404Z,9.20
2019-01-11T07:59:42.404Z,6.00
2019-01-11T08:00:42.417Z,9.60
2019-01-11T08:01:42.383Z,12.00
2019-01-11T08:02:42.372Z,11.50
2019-01-11T08:03:42.364Z,8.30
2019-01-11T08:04:42.351Z,9.20
2019-01-11T08:05:42.376Z,3.40
2019-01-11T08:06:42.339Z,9.80
2019-01-11T08:07:42.323Z,10.20
2019-01-11T08:08:42.319Z,9.40
2019-01-11T08:09:42.344Z,8.60
2019-01-11T08:10:42.309Z,7.20
2019-01-11T08:11:42.302Z,9.80
2019-01-11T08:12:42.297Z,7.20
2019-01-11T08:13:42.279Z,7.10
2019-01-11T08:14:42.300Z,6.10
2019-01-11T08:15:42.268Z,9.30
2019-01-11T08:16:42.260Z,8.90
2019-01-11T08:17:42.249Z,6.90
2019-01-11T08:18:42.238Z,10.40
2019-01-11T08:19:42.264Z,9.30
2019-01-11T08:20:42.222Z,8.00
2019-01-11T08:21:42.215Z,9.10
2019-01-11T08:22:42.207Z,7.30
2019-01-11T08:23:42.198Z,9.00
2019-01-11T08:24:42.223Z,6.70
2019-01-11T08:25:42.186Z,8.40
2019-01-11T08:26:42.175Z,4.30
2019-01-11T08:27:42.166Z,3.00
2019-01-11T08:28:42.158Z,5.20
2019-01-11T08:29:42.178Z,5.10
2019-01-11T08:30:42.144Z,7.50
2019-01-11T08:31:42.134Z,6.70
2019-01-11T08:32:42.128Z,9.60
2019-01-11T08:33:42.117Z,8.00
2019-01-11T08:34:42.137Z,8.70
2019-01-11T08:35:42.101Z,8.10
2019-01-11T08:36:42.093Z,6.40
2019-01-11T08:37:42.085Z,8.30
2019-01-11T08:38:42.077Z,9.20
2019-01-11T08:39:42.100Z,9.30
2019-01-11T08:40:42.058Z,7.40
2019-01-11T08:41:42.059Z,7.10
2019-01-11T08:42:42.044Z,7.50
2019-01-11T08:43:42.036Z,6.80
2019-01-11T08:44:42.111Z,5.30
2019-01-11T08:45:42.020Z,8.10
2019-01-11T08:46:42.014Z,6.80
2019-01-11T08:47:42.042Z,7.30
2019-01-11T08:48:41.998Z,5.70
2019-01-11T08:49:42.021Z,8.50
2019-01-11T08:50:41.988Z,5.40
2019-01-11T08:51:41.971Z,7.30
2019-01-11T08:52:41.962Z,5.10
2019-01-11T08:53:41.961Z,8.70
2019-01-11T08:54:41.975Z,5.60
2019-01-11T08:55:41.942Z,4.60
2019-01-11T08:56:41.932Z,4.90
2019-01-11T08:57:41.971Z,7.80
2019-01-11T08:58:41.919Z,7.30
2019-01-11T08:59:41.958Z,7.50
2019-01-11T09:00:41.904Z,4.70
2019-01-11T09:01:41.894Z,6.00
2019-01-11T09:02:41.891Z,5.50
2019-01-11T09:03:41.878Z,6.60
2019-01-11T09:04:41.899Z,5.40
2019-01-11T09:05:41.868Z,4.70
2019-01-11T09:06:41.854Z,5.70
2019-01-11T09:07:41.845Z,4.50
2019-01-11T09:08:41.842Z,5.30
2019-01-11T09:09:41.861Z,5.00
2019-01-11T09:10:41.829Z,3.80
2019-01-11T09:11:41.817Z,4.40
2019-01-11T09:12:41.809Z,5.20
2019-01-11T09:13:41.802Z,3.00
2019-01-11T09:14:41.821Z,4.10
2019-01-11T09:15:41.786Z,4.40
2019-01-11T09:16:41.781Z,3.90
2019-01-11T09:17:41.772Z,3.70
2019-01-11T09:18:41.769Z,4.60
2019-01-11T09:19:41.784Z,5.20
2019-01-11T09:20:41.749Z,4.70
2019-01-11T09:21:41.940Z,4.60
2019-01-11T09:22:41.733Z,6.10
2019-01-11T09:23:41.725Z,7.10
2019-01-11T09:24:41.748Z,4.40
2019-01-11T09:25:41.713Z,4.60
2019-01-11T09:26:41.708Z,6.00
2019-01-11T09:27:41.696Z,4.40
2019-01-11T09:28:41.690Z,4.10
2019-01-11T09:29:41.709Z,3.00
2019-01-11T09:30:41.674Z,5.70
2019-01-11T09:31:41.676Z,4.90
2019-01-11T09:32:41.660Z,3.00
2019-01-11T09:33:41.690Z,3.90
2019-01-11T09:34:41.646Z,2.90
2019-01-11T09:35:41.732Z,3.10
2019-01-11T09:36:41.621Z,4.80
2019-01-11T09:37:42.401Z,4.70
2019-01-11T09:38:41.611Z,2.80
2019-01-11T09:39:41.631Z,4.10
2019-01-11T09:40:41.600Z,3.70
2019-01-11T09:41:41.590Z,3.40
2019-01-11T09:42:41.582Z,4.60
2019-01-11T09:43:41.578Z,3.90
2019-01-11T09:44:41.598Z,2.80
2019-01-11T09:45:41.561Z,2.90
2019-01-11T09:46:41.556Z,3.80
2019-01-11T09:47:41.549Z,2.30
2019-01-11T09:48:41.541Z,2.30
2019-01-11T09:49:41.569Z,3.40
2019-01-11T09:50:41.525Z,2.70
2019-01-11T09:51:41.518Z,3.30
2019-01-11T09:52:41.509Z,3.60
2019-01-11T09:53:41.500Z,3.10
2019-01-11T09:54:41.522Z,3.40
2019-01-11T09:55:41.484Z,2.30
2019-01-11T09:56:41.479Z,2.40
2019-01-11T09:57:41.477Z,3.10
2019-01-11T09:58:41.463Z,1.50
2019-01-11T09:59:41.485Z,2.50
2019-01-11T10:00:41.449Z,3.00
2019-01-11T10:01:41.440Z,3.40
2019-01-11T10:02:41.516Z,3.20
2019-01-11T10:03:41.428Z,2.40
2019-01-11T10:04:41.451Z,3.40
2019-01-11T10:05:41.413Z,4.20
2019-01-11T10:06:41.403Z,2.40
2019-01-11T10:07:41.399Z,2.80
2019-01-11T10:08:41.393Z,2.50
2019-01-11T10:09:41.411Z,3.60
2019-01-11T10:10:41.404Z,2.30
2019-01-11T10:11:41.369Z,2.50
2019-01-11T10:12:41.359Z,2.30
2019-01-11T10:13:41.357Z,1.70
2019-01-11T10:14:41.347Z,3.20
2019-01-11T10:15:41.366Z,2.60
2019-01-11T10:16:41.331Z,3.30
2019-01-11T10:17:41.331Z,3.60
2019-01-11T10:18:41.318Z,2.30
2019-01-11T10:19:41.310Z,2.50
2019-01-11T10:20:41.391Z,2.00
2019-01-11T10:21:41.296Z,3.40
2019-01-11T10:22:41.292Z,3.10
2019-01-11T10:23:41.283Z,3.40
2019-01-11T10:24:41.307Z,2.60
2019-01-11T10:25:41.294Z,3.30
2019-01-11T10:26:41.262Z,3.00
2019-01-11T10:27:41.256Z,2.30
2019-01-11T10:28:41.246Z,2.90
2019-01-11T10:29:41.240Z,2.50
2019-01-11T10:30:41.258Z,3.00
2019-01-11T10:31:41.226Z,2.80
2019-01-11T10:32:41.244Z,2.70
2019-01-11T10:33:41.211Z,3.00
2019-01-11T10:34:41.207Z,4.40
2019-01-11T10:35:41.231Z,2.70
2019-01-11T10:36:41.184Z,2.20
2019-01-11T10:37:41.181Z,4.40
2019-01-11T10:38:41.173Z,3.30
2019-01-11T10:39:41.163Z,1.60
2019-01-11T10:40:41.190Z,3.30
2019-01-11T10:41:41.160Z,2.30
2019-01-11T10:42:41.152Z,3.90
2019-01-11T10:43:41.137Z,1.70
2019-01-11T10:44:41.134Z,3.30
2019-01-11T10:45:41.151Z,3.50
2019-01-11T10:46:41.121Z,2.10
2019-01-11T10:47:41.108Z,3.60
2019-01-11T10:48:41.094Z,2.90
2019-01-11T10:49:41.097Z,4.80
2019-01-11T10:50:41.121Z,3.90
2019-01-11T10:51:41.077Z,4.70
2019-01-11T10:52:41.070Z,5.30
2019-01-11T10:53:41.074Z,3.60
2019-01-11T10:54:41.058Z,4.60
2019-01-11T10:55:41.078Z,5.20
2019-01-11T10:56:41.046Z,3.10
2019-01-11T10:57:41.041Z,4.00
2019-01-11T10:58:41.031Z,2.70
2019-01-11T10:59:41.022Z,3.50
2019-01-11T11:00:41.047Z,3.30
2019-01-11T11:01:41.011Z,2.70
2019-01-11T11:02:41.003Z,4.50
2019-01-11T11:03:40.998Z,3.70
2019-01-11T11:04:40.993Z,4.20
2019-01-11T11:05:41.010Z,3.50
2019-01-11T11:06:40.976Z,2.60
2019-01-11T11:07:40.970Z,4.80
2019-01-11T11:08:40.961Z,3.80
2019-01-11T11:09:40.982Z,3.10
2019-01-11T11:10:40.945Z,3.40
2019-01-11T11:11:40.943Z,2.90
2019-01-11T11:12:40.935Z,4.20
2019-01-11T11:13:40.925Z,3.70
2019-01-11T11:14:44.159Z,4.30
2019-01-11T11:15:42.681Z,3.50
2019-01-11T11:16:45.175Z,2.60
2019-01-11T11:17:41.303Z,3.20
2019-01-11T11:18:41.890Z,5.00
2019-01-11T11:19:40.884Z,3.30
2019-01-11T11:20:42.242Z,5.10
2019-01-11T11:21:40.868Z,4.60
2019-01-11T11:22:40.863Z,4.20
2019-01-11T11:23:40.856Z,4.40
2019-01-11T11:24:50.212Z,4.80
2019-01-11T11:25:46.273Z,4.10
2019-01-11T11:26:43.676Z,3.70
2019-01-11T11:27:42.175Z,3.90
2019-01-11T11:28:41.068Z,3.70
2019-01-11T11:29:41.144Z,5.40
2019-01-11T11:30:42.175Z,4.00
2019-01-11T11:31:45.200Z,4.40
2019-01-11T11:32:56.178Z,5.30
2019-01-11T11:33:40.789Z,5.70
2019-01-11T11:34:42.725Z,5.10
2019-01-11T11:36:40.763Z,5.30
2019-01-11T11:37:40.760Z,3.30
2019-01-11T11:38:44.226Z,3.30
2019-01-11T11:39:40.751Z,6.30
2019-01-11T11:40:40.767Z,4.90
2019-01-11T11:41:42.722Z,7.80
2019-01-11T11:42:40.733Z,5.80
2019-01-11T11:43:47.303Z,6.80
2019-01-11T11:44:46.676Z,5.80
2019-01-11T11:45:45.211Z,4.00
2019-01-11T11:46:40.698Z,4.80
2019-01-11T11:47:42.057Z,5.70
2019-01-11T11:48:42.263Z,6.80
2019-01-11T11:49:40.681Z,4.80
2019-01-11T11:50:40.701Z,6.40
2019-01-11T11:51:41.470Z,3.60
2019-01-11T11:52:40.658Z,5.50
2019-01-11T11:53:40.938Z,6.10
2019-01-11T11:54:41.694Z,4.80
2019-01-11T11:55:41.753Z,6.60
2019-01-11T11:56:41.129Z,5.10
2019-01-11T11:57:40.627Z,5.80
2019-01-11T11:58:41.210Z,6.50
2019-01-11T11:59:40.616Z,4.80
2019-01-11T12:00:41.425Z,6.60
2019-01-11T12:01:40.629Z,5.00
2019-01-11T12:02:40.593Z,4.70
2019-01-11T12:03:40.588Z,3.90
2019-01-11T12:04:40.582Z,4.90
2019-01-11T12:05:40.578Z,3.70
2019-01-11T12:06:40.593Z,5.40
2019-01-11T12:07:40.564Z,3.80
2019-01-11T12:08:40.554Z,3.20
2019-01-11T12:09:40.545Z,3.60
2019-01-11T12:10:40.543Z,5.70
2019-01-11T12:11:40.564Z,5.10
2019-01-11T12:12:40.528Z,5.20
2019-01-11T12:13:40.527Z,5.90
2019-01-11T12:14:40.511Z,2.90
2019-01-11T12:15:40.511Z,2.80
2019-01-11T12:16:40.528Z,3.30
2019-01-11T12:17:40.491Z,4.70
2019-01-11T12:18:40.492Z,6.60
2019-01-11T12:19:40.479Z,3.10
2019-01-11T12:20:40.472Z,5.20
2019-01-11T12:21:40.497Z,3.30
2019-01-11T12:22:40.460Z,5.30
2019-01-11T12:23:40.452Z,3.80
2019-01-11T12:24:40.450Z,4.80
2019-01-11T12:25:40.446Z,3.80
2019-01-11T12:26:40.473Z,7.00
2019-01-11T12:27:40.427Z,4.20
2019-01-11T12:28:40.421Z,5.60
2019-01-11T12:29:40.417Z,5.40
2019-01-11T12:30:40.436Z,5.30
2019-01-11T12:31:40.399Z,3.20
2019-01-11T12:32:40.419Z,4.70
2019-01-11T12:33:40.394Z,4.70
2019-01-11T12:34:40.378Z,4.50
2019-01-11T12:35:40.375Z,4.90
2019-01-11T12:36:40.393Z,4.00
2019-01-11T12:37:40.361Z,3.10
2019-01-11T12:38:40.359Z,4.60
2019-01-11T12:39:40.347Z,4.00
2019-01-11T12:40:40.366Z,5.60
2019-01-11T12:41:40.338Z,4.20
2019-01-11T12:42:40.329Z,3.60
2019-01-11T12:43:40.324Z,6.30
2019-01-11T12:44:40.464Z,5.60
2019-01-11T12:45:40.334Z,6.20
2019-01-11T12:46:40.298Z,4.20
2019-01-11T12:47:40.299Z,5.80
2019-01-11T12:48:40.285Z,4.90
2019-01-11T12:49:40.277Z,5.70
2019-01-11T12:50:40.296Z,6.10
2019-01-11T12:51:40.275Z,3.90
2019-01-11T12:52:40.257Z,6.30
2019-01-11T12:53:40.252Z,5.10
2019-01-11T12:54:40.248Z,4.80
2019-01-11T12:55:40.264Z,4.10
2019-01-11T12:56:40.235Z,5.70
2019-01-11T12:57:40.226Z,5.10
2019-01-11T12:58:40.216Z,6.10
2019-01-11T12:59:40.209Z,5.10
2019-01-11T13:00:40.231Z,5.90
2019-01-11T13:01:40.198Z,6.80
2019-01-11T13:02:40.800Z,7.80
2019-01-11T13:03:40.184Z,3.30
2019-01-11T13:04:40.179Z,7.40
2019-01-11T13:05:40.199Z,6.50
2019-01-11T13:06:40.165Z,5.00
2019-01-11T13:07:40.756Z,5.60
2019-01-11T13:08:40.182Z,5.90
2019-01-11T13:09:40.152Z,8.10
2019-01-11T13:10:40.140Z,7.90
2019-01-11T13:11:40.130Z,6.80
2019-01-11T13:12:40.124Z,8.00
2019-01-11T13:13:40.147Z,5.50
2019-01-11T13:14:40.112Z,4.70
2019-01-11T13:15:40.106Z,6.10